Time;durP1;ratioP1;P1;durP2;ratioP2;P2;SDS_P1;SDS_P2;PMS_P1;PMS_P2;Temp;Humidity;BMP_temperature;BMP_pressure;BME280_temperature;BME280_humidity;BME280_pressure;Samples;Min_cycle;Max_cycle;Signal;HPM_P1;HPM_P2
2023/07/22 00:00:25;;;;;;;2.20;2.10;;;24.00;45.10;;;;;;4975875;28;20234;-61
2023/07/22 00:02:51;;;;;;;1.80;1.70;;;24.00;45.10;;;;;;4978518;28;20231;-61
2023/07/22 00:05:22;;;;;;;2.20;2.10;;;24.00;45.10;;;;;;4979649;28;20470;-63
2023/07/22 00:07:48;;;;;;;2.40;2.30;;;24.00;45.10;;;;;;4996542;28;20747;-61
2023/07/22 00:10:14;;;;;;;2.13;2.03;;;24.00;45.10;;;;;;4994739;28;20939;-62
2023/07/22 00:12:40;;;;;;;2.37;2.00;;;24.00;45.10;;;;;;4995064;28;20477;-62
2023/07/22 00:15:06;;;;;;;2.10;2.00;;;24.00;45.10;;;;;;4996345;28;20268;-62
2023/07/22 00:17:31;;;;;;;1.87;1.77;;;24.00;45.10;;;;;;4974533;28;20216;-62
2023/07/22 00:19:57;;;;;;;2.13;2.03;;;24.00;45.10;;;;;;4985177;28;21063;-62
2023/07/22 00:22:22;;;;;;;2.47;2.37;;;24.00;45.10;;;;;;4992955;28;20240;-62
2023/07/22 00:24:48;;;;;;;2.00;1.90;;;24.00;45.10;;;;;;4972546;28;20275;-61
2023/07/22 00:27:14;;;;;;;2.10;2.00;;;24.00;45.10;;;;;;5023564;28;20223;-62
2023/07/22 00:29:40;;;;;;;1.90;1.80;;;24.00;45.10;;;;;;4989407;28;20482;-63
2023/07/22 00:32:08;;;;;;;1.73;1.63;;;24.00;45.10;;;;;;4979440;28;20226;-61
2023/07/22 00:34:34;;;;;;;1.90;1.80;;;24.00;45.90;;;;;;4975997;28;20771;-62
2023/07/22 00:36:59;;;;;;;2.00;1.90;;;24.00;45.10;;;;;;4974647;28;20458;-62
2023/07/22 00:39:25;;;;;;;2.10;2.00;;;24.00;45.10;;;;;;4977388;28;20225;-63
2023/07/22 00:41:50;;;;;;;1.90;1.80;;;24.00;45.10;;;;;;4977439;28;20228;-62
2023/07/22 00:44:16;;;;;;;1.83;1.73;;;24.00;45.10;;;;;;4978484;28;20239;-63
2023/07/22 00:46:41;;;;;;;1.80;1.70;;;24.00;45.10;;;;;;4973048;28;20274;-63
2023/07/22 00:49:08;;;;;;;2.30;2.20;;;24.00;45.10;;;;;;4974476;28;20562;-61
2023/07/22 00:51:34;;;;;;;2.60;2.50;;;24.00;45.10;;;;;;4975446;28;20974;-62
2023/07/22 00:53:59;;;;;;;2.00;1.90;;;24.00;45.10;;;;;;4975181;28;20461;-63
2023/07/22 00:56:25;;;;;;;1.90;1.80;;;24.00;45.10;;;;;;4977546;28;20458;-62
2023/07/22 00:58:52;;;;;;;1.90;1.80;;;24.00;45.00;;;;;;4995943;28;20240;-63
2023/07/22 01:01:17;;;;;;;2.07;1.97;;;24.00;45.10;;;;;;4994926;28;20238;-63
2023/07/22 01:03:43;;;;;;;2.27;2.17;;;24.00;45.10;;;;;;4990925;28;20934;-62
2023/07/22 01:06:09;;;;;;;2.00;1.90;;;24.00;45.10;;;;;;4976964;28;20302;-63
2023/07/22 01:08:35;;;;;;;2.00;1.90;;;24.00;45.10;;;;;;4980088;28;20223;-62
2023/07/22 01:11:01;;;;;;;2.00;1.90;;;24.00;45.10;;;;;;4986870;28;20445;-62
2023/07/22 01:13:26;;;;;;;2.00;1.90;;;24.00;45.10;;;;;;4995305;28;20226;-62
2023/07/22 01:15:52;;;;;;;2.27;2.10;;;24.00;45.10;;;;;;4992903;28;20259;-63
2023/07/22 01:18:18;;;;;;;2.00;1.90;;;24.00;45.00;;;;;;4995723;28;20230;-61
2023/07/22 01:20:45;;;;;;;1.73;1.63;;;24.00;45.10;;;;;;4993336;28;20458;-62
2023/07/22 01:23:11;;;;;;;2.87;2.67;;;24.00;45.10;;;;;;4995236;28;20226;-61
2023/07/22 01:25:37;;;;;;;1.67;1.57;;;24.00;45.00;;;;;;4995038;28;20534;-62
2023/07/22 01:28:03;;;;;;;2.30;2.20;;;24.00;45.00;;;;;;4993936;28;20453;-62
2023/07/22 01:30:28;;;;;;;1.90;1.80;;;24.00;45.00;;;;;;4993605;28;20219;-61
2023/07/22 01:32:54;;;;;;;2.00;1.90;;;24.00;45.80;;;;;;4994795;28;20234;-62
2023/07/22 01:35:20;;;;;;;2.13;2.03;;;24.00;45.00;;;;;;4992329;28;20247;-62
2023/07/22 01:37:46;;;;;;;2.00;1.90;;;24.00;45.00;;;;;;4994161;28;20275;-63
2023/07/22 01:40:12;;;;;;;2.30;2.20;;;24.00;45.10;;;;;;4992282;28;20493;-62
2023/07/22 01:42:42;;;;;;;2.10;2.00;;;24.00;45.00;;;;;;4998698;28;20246;-62
2023/07/22 01:45:08;;;;;;;2.37;2.20;;;24.00;45.00;;;;;;4994673;28;20679;-62
2023/07/22 01:47:35;;;;;;;2.00;1.90;;;24.00;45.00;;;;;;4980761;28;20549;-61
2023/07/22 01:50:01;;;;;;;1.90;1.80;;;24.00;45.00;;;;;;4973798;28;20973;-62
2023/07/22 01:52:27;;;;;;;2.30;2.20;;;24.00;45.00;;;;;;4993625;28;20867;-64
2023/07/22 01:54:53;;;;;;;2.30;2.20;;;24.00;45.00;;;;;;4995735;28;20457;-62
2023/07/22 01:57:18;;;;;;;1.80;1.70;;;24.00;45.00;;;;;;4985792;28;20235;-62
2023/07/22 01:59:44;;;;;;;2.10;2.00;;;24.00;45.00;;;;;;4978710;28;20228;-62
2023/07/22 02:02:09;;;;;;;2.10;2.00;;;24.00;45.00;;;;;;4978001;28;20760;-61
2023/07/22 02:04:35;;;;;;;1.80;1.70;;;24.00;45.00;;;;;;4992827;28;20235;-63
2023/07/22 02:07:00;;;;;;;2.10;2.00;;;24.00;45.00;;;;;;4992093;28;20212;-62
2023/07/22 02:09:27;;;;;;;2.40;2.30;;;24.00;45.00;;;;;;4980180;28;20227;-61
2023/07/22 02:11:53;;;;;;;2.10;1.90;;;24.00;45.00;;;;;;4994388;28;20300;-62
2023/07/22 02:14:19;;;;;;;2.40;2.30;;;24.00;45.00;;;;;;4996332;28;20829;-62
2023/07/22 02:16:45;;;;;;;2.23;2.13;;;24.00;45.00;;;;;;4994320;28;20532;-62
2023/07/22 02:19:10;;;;;;;1.93;1.83;;;24.00;45.00;;;;;;4977291;28;20706;-61
2023/07/22 02:21:36;;;;;;;2.20;2.10;;;24.00;44.90;;;;;;4973483;28;20231;-61
2023/07/22 02:24:01;;;;;;;1.93;1.83;;;24.00;44.90;;;;;;4990241;28;20239;-62
2023/07/22 02:26:27;;;;;;;2.33;2.23;;;24.00;45.00;;;;;;4993472;28;20722;-63
2023/07/22 02:28:52;;;;;;;2.30;2.20;;;24.00;44.90;;;;;;4996319;28;20332;-62
2023/07/22 02:31:18;;;;;;;1.80;1.70;;;24.00;44.90;;;;;;4994754;28;20294;-62
2023/07/22 02:33:43;;;;;;;1.97;1.87;;;24.00;44.90;;;;;;4991996;28;20790;-63
2023/07/22 02:36:09;;;;;;;1.93;1.83;;;24.00;44.90;;;;;;4993217;28;20293;-61
2023/07/22 02:38:34;;;;;;;2.37;2.27;;;24.00;45.00;;;;;;4977145;28;20227;-63
2023/07/22 02:41:06;;;;;;;2.07;1.97;;;24.00;45.70;;;;;;4983597;28;20228;-62
2023/07/22 02:43:32;;;;;;;1.97;1.87;;;24.00;44.90;;;;;;4990156;28;20638;-62
2023/07/22 02:45:59;;;;;;;2.10;2.00;;;24.00;44.90;;;;;;4991145;28;20559;-61
2023/07/22 02:48:25;;;;;;;1.97;1.87;;;24.00;44.90;;;;;;4981514;28;20840;-61
2023/07/22 02:50:50;;;;;;;2.13;2.03;;;24.00;44.90;;;;;;4980125;28;20474;-62
2023/07/22 02:53:16;;;;;;;1.90;1.80;;;24.00;44.90;;;;;;4973248;28;20255;-62
2023/07/22 02:55:41;;;;;;;2.33;2.00;;;24.00;44.90;;;;;;4973465;28;20719;-62
2023/07/22 02:58:07;;;;;;;2.30;2.20;;;24.00;44.90;;;;;;4974232;28;20224;-62
2023/07/22 03:00:32;;;;;;;2.03;1.93;;;24.00;44.90;;;;;;4995443;28;20964;-62
2023/07/22 03:03:00;;;;;;;2.40;2.30;;;24.00;44.90;;;;;;4992712;28;20220;-62
2023/07/22 03:05:28;;;;;;;2.00;1.90;;;24.00;44.90;;;;;;4990252;28;20240;-61
2023/07/22 03:07:53;;;;;;;2.03;1.93;;;24.00;45.00;;;;;;4990851;28;20536;-62
2023/07/22 03:10:19;;;;;;;2.13;2.03;;;24.00;44.90;;;;;;4975192;28;21201;-62
2023/07/22 03:12:44;;;;;;;1.90;1.80;;;24.00;44.90;;;;;;4977540;28;20218;-62
2023/07/22 03:15:12;;;;;;;2.10;2.00;;;24.00;45.00;;;;;;4979314;28;20216;-62
2023/07/22 03:17:39;;;;;;;2.17;2.07;;;24.00;44.90;;;;;;5000972;28;20250;-62
2023/07/22 03:20:08;;;;;;;2.20;2.10;;;24.00;45.00;;;;;;4992271;28;20459;-62
2023/07/22 03:22:34;;;;;;;2.10;2.00;;;24.00;44.90;;;;;;4979488;28;20457;-62
2023/07/22 03:24:59;;;;;;;2.00;1.90;;;24.00;44.90;;;;;;4975841;28;20466;-62
2023/07/22 03:27:25;;;;;;;1.90;1.80;;;24.00;44.90;;;;;;4976671;28;20220;-62
2023/07/22 03:29:50;;;;;;;2.33;2.23;;;24.00;44.90;;;;;;4984563;28;20232;-62
2023/07/22 03:32:16;;;;;;;2.10;2.00;;;24.00;45.00;;;;;;4984022;28;20237;-62
2023/07/22 03:34:41;;;;;;;2.03;1.93;;;24.00;44.90;;;;;;4995792;28;21110;-62
2023/07/22 03:37:07;;;;;;;2.00;1.90;;;24.00;44.90;;;;;;4996529;28;20308;-62
2023/07/22 03:39:32;;;;;;;2.07;1.97;;;24.00;45.00;;;;;;4993443;28;20219;-62
2023/07/22 03:41:58;;;;;;;2.30;2.20;;;24.00;44.90;;;;;;4994744;28;20231;-63
2023/07/22 03:44:24;;;;;;;2.17;2.07;;;24.00;44.90;;;;;;4995578;28;20227;-62
2023/07/22 03:46:49;;;;;;;2.50;2.30;;;24.00;45.80;;;;;;4995840;28;20309;-63
2023/07/22 03:49:15;;;;;;;2.70;2.50;;;24.00;45.00;;;;;;4995274;28;20227;-61
2023/07/22 03:51:40;;;;;;;2.03;1.93;;;24.00;44.90;;;;;;4998168;28;20413;-61
2023/07/22 03:54:06;;;;;;;2.00;1.90;;;24.00;45.00;;;;;;4999441;28;20258;-61
2023/07/22 03:56:31;;;;;;;1.83;1.73;;;24.00;45.00;;;;;;4997125;28;20259;-62
2023/07/22 03:58:57;;;;;;;2.27;2.07;;;24.00;44.90;;;;;;4994717;28;20236;-62
2023/07/22 04:01:22;;;;;;;2.00;1.90;;;24.00;45.00;;;;;;4994894;28;20223;-63
2023/07/22 04:03:48;;;;;;;2.00;1.90;;;24.00;45.00;;;;;;4996326;28;20327;-62
2023/07/22 04:06:13;;;;;;;2.10;2.00;;;24.00;45.00;;;;;;4993978;28;20291;-62
2023/07/22 04:08:39;;;;;;;1.90;1.80;;;23.90;44.80;;;;;;4999713;28;20247;-62
2023/07/22 04:11:04;;;;;;;2.23;2.13;;;24.00;44.90;;;;;;4994854;28;21068;-62
2023/07/22 04:13:30;;;;;;;1.90;1.80;;;24.00;44.90;;;;;;4997251;28;20613;-61
2023/07/22 04:15:55;;;;;;;2.10;2.00;;;24.00;44.90;;;;;;4993863;28;20236;-61
2023/07/22 04:18:21;;;;;;;2.17;2.07;;;24.00;45.70;;;;;;4992328;28;20230;-62
2023/07/22 04:20:50;;;;;;;1.90;1.80;;;24.00;44.90;;;;;;4993576;28;20224;-62
2023/07/22 04:23:16;;;;;;;2.37;2.27;;;23.90;44.80;;;;;;4984885;28;20221;-62
2023/07/22 04:25:43;;;;;;;1.97;1.87;;;24.00;44.90;;;;;;4990010;28;20585;-62
2023/07/22 04:28:09;;;;;;;2.40;2.30;;;24.00;44.90;;;;;;4998337;28;20228;-62
2023/07/22 04:30:36;;;;;;;2.37;2.27;;;23.90;44.80;;;;;;4993032;28;20824;-62
2023/07/22 04:33:02;;;;;;;2.40;2.30;;;23.90;44.80;;;;;;4997072;28;20848;-62
2023/07/22 04:35:31;;;;;;;2.10;2.00;;;23.90;44.80;;;;;;4988591;28;20534;-61
2023/07/22 04:37:56;;;;;;;2.17;2.07;;;24.00;44.90;;;;;;4996834;28;20462;-62
2023/07/22 04:40:22;;;;;;;2.10;2.00;;;24.00;44.90;;;;;;4994642;28;20469;-63
2023/07/22 04:42:51;;;;;;;1.93;1.83;;;24.00;44.90;;;;;;4997142;28;20299;-62
2023/07/22 04:45:18;;;;;;;2.03;1.93;;;24.00;44.90;;;;;;4995323;28;20480;-62
2023/07/22 04:47:46;;;;;;;2.00;1.90;;;24.00;44.90;;;;;;4995108;28;20468;-62
2023/07/22 04:50:13;;;;;;;2.20;2.10;;;24.00;44.90;;;;;;4995093;28;20560;-61
2023/07/22 04:52:38;;;;;;;1.80;1.70;;;24.00;44.90;;;;;;4993450;28;20454;-63
2023/07/22 04:55:08;;;;;;;2.07;1.97;;;24.00;44.80;;;;;;4980192;28;20469;-62
2023/07/22 04:57:35;;;;;;;2.13;2.03;;;24.00;44.80;;;;;;4977479;28;20216;-62
2023/07/22 05:00:04;;;;;;;1.83;1.73;;;24.00;44.80;;;;;;4972175;28;20475;-61
2023/07/22 05:02:31;;;;;;;1.83;1.73;;;24.00;44.80;;;;;;4976530;28;20461;-63
2023/07/22 05:04:56;;;;;;;2.00;1.90;;;24.00;44.80;;;;;;4975223;28;28026;-62
2023/07/22 05:07:22;;;;;;;1.83;1.73;;;24.00;44.80;;;;;;4976814;28;20490;-63
2023/07/22 05:09:49;;;;;;;1.90;1.80;;;24.00;44.80;;;;;;4990950;28;20271;-63
2023/07/22 05:12:14;;;;;;;2.17;2.07;;;24.00;44.80;;;;;;4993342;28;21332;-61
2023/07/22 05:14:40;;;;;;;1.93;1.83;;;24.00;44.80;;;;;;4990597;28;20458;-62
2023/07/22 05:17:05;;;;;;;1.80;1.70;;;24.00;44.80;;;;;;4994698;28;20223;-61
2023/07/22 05:19:31;;;;;;;2.10;2.00;;;24.00;44.70;;;;;;4993932;28;20242;-61
2023/07/22 05:21:56;;;;;;;2.17;2.07;;;24.00;44.80;;;;;;4993427;28;20656;-62
2023/07/22 05:24:22;;;;;;;2.03;1.93;;;24.00;44.80;;;;;;4992455;28;20219;-62
2023/07/22 05:26:47;;;;;;;2.30;2.20;;;24.00;44.80;;;;;;4993137;28;20231;-63
2023/07/22 05:29:13;;;;;;;2.20;2.10;;;24.00;44.80;;;;;;4980277;28;20699;-62
2023/07/22 05:31:38;;;;;;;2.10;2.00;;;24.00;44.80;;;;;;4974302;28;20259;-61
2023/07/22 05:34:04;;;;;;;1.87;1.77;;;24.00;44.80;;;;;;4977195;28;20306;-61
2023/07/22 05:36:30;;;;;;;1.80;1.70;;;24.00;44.70;;;;;;4975314;28;20247;-61
2023/07/22 05:38:57;;;;;;;1.90;1.80;;;24.00;44.80;;;;;;4976353;28;20238;-64
2023/07/22 05:41:22;;;;;;;2.10;2.00;;;24.00;44.80;;;;;;4975376;28;20233;-64
2023/07/22 05:43:48;;;;;;;2.47;2.37;;;24.00;44.70;;;;;;4980457;28;20481;-63
2023/07/22 05:46:13;;;;;;;1.90;1.80;;;24.00;44.70;;;;;;4988906;28;20223;-61
2023/07/22 05:48:39;;;;;;;1.90;1.80;;;24.00;44.70;;;;;;4993870;28;20218;-62
2023/07/22 05:51:05;;;;;;;2.10;2.00;;;24.00;44.70;;;;;;4995300;28;20227;-62
2023/07/22 05:53:32;;;;;;;2.00;1.90;;;24.00;44.70;;;;;;4989959;28;20219;-61
2023/07/22 05:55:57;;;;;;;1.93;1.83;;;24.00;44.70;;;;;;4989055;28;20370;-62
2023/07/22 05:58:23;;;;;;;1.87;1.77;;;24.00;44.70;;;;;;4988281;28;20548;-62
2023/07/22 06:00:49;;;;;;;2.10;2.00;;;24.00;44.70;;;;;;4974754;28;20710;-62
2023/07/22 06:03:14;;;;;;;2.00;1.90;;;24.00;44.70;;;;;;4983694;28;20223;-62
2023/07/22 06:05:40;;;;;;;1.90;1.80;;;24.00;44.70;;;;;;4992234;28;20228;-62
2023/07/22 06:08:06;;;;;;;1.90;1.80;;;24.00;44.70;;;;;;4997574;28;20782;-62
2023/07/22 06:10:32;;;;;;;2.33;2.23;;;24.00;44.70;;;;;;4993860;28;20228;-63
2023/07/22 06:12:57;;;;;;;2.37;2.27;;;24.00;44.80;;;;;;4995842;28;20561;-62
2023/07/22 06:15:23;;;;;;;2.10;2.00;;;24.10;44.90;;;;;;4993454;28;20459;-62
2023/07/22 06:17:48;;;;;;;2.00;1.90;;;24.00;44.70;;;;;;4993590;28;20658;-63
2023/07/22 06:20:14;;;;;;;1.80;1.70;;;24.00;44.80;;;;;;4993052;28;20228;-62
2023/07/22 06:22:40;;;;;;;2.50;2.30;;;24.00;44.70;;;;;;4993844;28;20215;-61
2023/07/22 06:25:06;;;;;;;1.93;1.83;;;24.00;44.70;;;;;;4985338;28;20339;-61
2023/07/22 06:27:32;;;;;;;2.07;1.77;;;24.00;44.70;;;;;;4992113;28;20227;-62
2023/07/22 06:29:58;;;;;;;1.90;1.80;;;24.00;44.70;;;;;;4973320;28;21176;-61
2023/07/22 06:32:24;;;;;;;1.90;1.80;;;24.00;44.70;;;;;;4972669;28;20458;-62
2023/07/22 06:34:49;;;;;;;1.83;1.73;;;24.00;44.70;;;;;;4972034;28;20228;-63
2023/07/22 06:37:15;;;;;;;1.97;1.87;;;24.00;44.70;;;;;;4983733;28;20860;-62
2023/07/22 06:39:40;;;;;;;1.90;1.80;;;24.00;44.60;;;;;;4983139;28;20220;-61
2023/07/22 06:42:06;;;;;;;2.03;1.93;;;24.00;44.70;;;;;;4993796;28;20234;-62
2023/07/22 06:44:31;;;;;;;1.70;1.60;;;24.00;44.70;;;;;;4982344;28;20290;-63
2023/07/22 06:47:00;;;;;;;2.07;1.97;;;24.00;44.60;;;;;;5008322;28;20231;-62
2023/07/22 06:49:25;;;;;;;2.10;2.00;;;24.00;44.70;;;;;;4973826;28;20327;-61
2023/07/22 06:51:51;;;;;;;2.20;2.10;;;24.00;44.70;;;;;;4973232;28;20565;-63
2023/07/22 06:54:17;;;;;;;1.80;1.70;;;24.00;44.60;;;;;;4984144;28;20277;-62
2023/07/22 06:56:42;;;;;;;2.10;2.00;;;24.00;44.70;;;;;;4993816;28;20457;-62
2023/07/22 06:59:08;;;;;;;2.20;2.10;;;24.00;44.60;;;;;;4993941;28;20255;-62
2023/07/22 07:01:34;;;;;;;1.80;1.70;;;24.00;44.60;;;;;;4978433;28;20577;-62
2023/07/22 07:03:59;;;;;;;1.80;1.70;;;24.00;44.60;;;;;;4971951;28;20240;-62
2023/07/22 07:06:25;;;;;;;2.07;1.97;;;24.00;44.60;;;;;;4980759;28;20234;-61
2023/07/22 07:08:50;;;;;;;2.17;2.07;;;24.10;44.70;;;;;;4992840;28;20228;-62
2023/07/22 07:11:16;;;;;;;2.10;2.00;;;24.10;44.70;;;;;;4989122;28;20231;-61
2023/07/22 07:13:41;;;;;;;2.00;1.90;;;24.00;44.60;;;;;;4986997;28;20680;-63
2023/07/22 07:16:24;;;;;;;1.70;1.60;;;24.10;44.70;;;;;;4972642;28;20227;-61
2023/07/22 07:18:51;;;;;;;2.27;2.17;;;24.10;44.70;;;;;;4973262;28;20315;-61
2023/07/22 07:21:17;;;;;;;1.90;1.80;;;24.00;44.60;;;;;;4972517;28;20454;-61
2023/07/22 07:23:43;;;;;;;1.97;1.87;;;24.10;44.70;;;;;;4976512;28;20457;-61
2023/07/22 07:26:08;;;;;;;1.90;1.80;;;24.10;44.80;;;;;;4991201;28;20461;-61
2023/07/22 07:28:34;;;;;;;1.97;1.87;;;24.10;44.70;;;;;;4996754;28;20211;-62
2023/07/22 07:31:00;;;;;;;1.80;1.70;;;24.10;44.70;;;;;;4992834;28;20224;-61
2023/07/22 07:33:25;;;;;;;1.70;1.60;;;24.00;44.60;;;;;;4992853;28;20306;-61
2023/07/22 07:35:51;;;;;;;2.17;1.97;;;24.00;44.60;;;;;;4992743;28;20277;-61
2023/07/22 07:38:17;;;;;;;2.17;2.07;;;24.10;44.60;;;;;;4994691;28;20801;-61
2023/07/22 07:40:42;;;;;;;1.90;1.80;;;24.10;44.70;;;;;;4993197;28;20223;-61
2023/07/22 07:43:08;;;;;;;1.80;1.70;;;24.10;44.60;;;;;;4993976;28;20947;-62
2023/07/22 07:45:38;;;;;;;2.10;2.00;;;24.10;44.70;;;;;;4992349;28;20224;-61
2023/07/22 07:48:04;;;;;;;1.90;1.80;;;24.00;44.60;;;;;;4996546;28;20230;-61
2023/07/22 07:50:29;;;;;;;2.00;1.90;;;24.10;44.70;;;;;;4991087;28;20704;-61
2023/07/22 07:52:55;;;;;;;2.17;2.07;;;24.00;44.50;;;;;;4990197;28;21076;-61
2023/07/22 07:55:20;;;;;;;2.00;1.90;;;24.10;44.60;;;;;;4993176;28;20232;-62
2023/07/22 07:57:46;;;;;;;1.87;1.77;;;24.00;44.50;;;;;;4980091;28;20224;-61
2023/07/22 08:00:12;;;;;;;1.80;1.70;;;24.10;44.60;;;;;;4985432;28;20227;-62
2023/07/22 08:02:37;;;;;;;1.97;1.87;;;24.00;44.60;;;;;;4982507;28;20429;-62
2023/07/22 08:05:03;;;;;;;1.90;1.80;;;24.10;44.60;;;;;;4979480;28;20311;-62
2023/07/22 08:07:28;;;;;;;2.13;2.03;;;24.10;44.60;;;;;;4981252;28;20219;-62
2023/07/22 08:09:54;;;;;;;1.80;1.70;;;24.10;44.60;;;;;;4974545;28;20227;-61
2023/07/22 08:12:20;;;;;;;2.50;1.87;;;24.10;44.70;;;;;;4976663;28;20247;-62
2023/07/22 08:14:45;;;;;;;2.03;1.93;;;24.10;44.60;;;;;;4977449;28;20228;-62
2023/07/22 08:17:11;;;;;;;2.20;2.10;;;24.00;44.50;;;;;;4982533;28;20236;-62
2023/07/22 08:19:36;;;;;;;1.67;1.57;;;24.10;44.60;;;;;;4976847;28;20707;-63
2023/07/22 08:22:02;;;;;;;1.97;1.87;;;24.10;44.60;;;;;;4988854;28;21635;-61
2023/07/22 08:24:27;;;;;;;1.93;1.83;;;24.10;44.60;;;;;;4995942;28;20598;-61
2023/07/22 08:26:53;;;;;;;2.03;1.93;;;24.10;44.60;;;;;;4993680;28;20223;-62
2023/07/22 08:29:19;;;;;;;1.70;1.60;;;24.10;44.60;;;;;;4975717;28;20231;-61
2023/07/22 08:31:44;;;;;;;2.00;1.90;;;24.10;44.60;;;;;;4977106;28;20627;-62
2023/07/22 08:34:10;;;;;;;1.97;1.87;;;24.10;44.60;;;;;;4975854;28;20818;-64
2023/07/22 08:36:36;;;;;;;1.83;1.73;;;24.10;44.60;;;;;;4977620;28;20216;-62
2023/07/22 08:39:01;;;;;;;1.80;1.70;;;24.10;44.60;;;;;;4977930;28;20306;-62
2023/07/22 08:41:29;;;;;;;1.90;1.80;;;24.00;44.50;;;;;;4982555;28;20236;-62
2023/07/22 08:43:58;;;;;;;2.23;2.13;;;24.10;44.50;;;;;;4977669;28;20237;-62
2023/07/22 08:46:29;;;;;;;2.00;1.90;;;24.10;44.50;;;;;;4980051;28;20448;-62
2023/07/22 08:48:56;;;;;;;1.80;1.70;;;24.10;44.50;;;;;;4986208;28;20536;-61
2023/07/22 08:51:23;;;;;;;1.90;1.80;;;24.10;44.50;;;;;;4975600;28;20501;-63
2023/07/22 08:53:50;;;;;;;2.80;1.80;;;24.10;44.50;;;;;;4994037;28;20450;-61
2023/07/22 08:56:16;;;;;;;2.30;2.20;;;24.10;44.50;;;;;;4993273;28;20488;-62
2023/07/22 08:58:42;;;;;;;1.97;1.87;;;24.10;44.50;;;;;;4997198;28;20469;-63
2023/07/22 09:01:08;;;;;;;1.93;1.83;;;24.10;44.50;;;;;;4995376;28;20503;-63
2023/07/22 09:03:34;;;;;;;2.00;1.90;;;24.10;44.50;;;;;;4989814;28;20462;-61
2023/07/22 09:06:01;;;;;;;2.10;2.00;;;24.10;44.50;;;;;;4991363;28;20653;-62
2023/07/22 09:08:26;;;;;;;1.83;1.73;;;24.00;44.30;;;;;;4994542;28;20687;-62
2023/07/22 09:10:53;;;;;;;2.00;1.90;;;24.10;44.50;;;;;;4994389;28;20503;-61
2023/07/22 09:13:20;;;;;;;2.03;1.93;;;24.10;44.50;;;;;;4992803;28;20243;-62
2023/07/22 09:15:47;;;;;;;1.77;1.67;;;24.10;44.40;;;;;;4974426;28;20465;-62
2023/07/22 09:18:14;;;;;;;2.10;2.00;;;24.10;44.40;;;;;;4973480;28;20457;-62
2023/07/22 09:20:41;;;;;;;1.80;1.70;;;24.10;44.50;;;;;;4974628;28;20458;-62
2023/07/22 09:23:07;;;;;;;2.00;1.90;;;24.10;44.40;;;;;;4978723;28;20454;-63
2023/07/22 09:25:33;;;;;;;2.00;1.90;;;24.10;44.40;;;;;;4975196;28;20473;-62
2023/07/22 09:28:02;;;;;;;1.80;1.70;;;24.10;45.20;;;;;;4974262;28;20267;-61
2023/07/22 09:30:38;;;;;;;1.97;1.87;;;24.10;44.50;;;;;;4973511;28;20277;-62
2023/07/22 09:33:06;;;;;;;1.97;1.87;;;24.10;44.30;;;;;;4975369;28;20492;-61
2023/07/22 09:35:47;;;;;;;2.20;2.10;;;24.10;44.50;;;;;;4973239;28;20469;-64
2023/07/22 09:38:15;;;;;;;1.73;1.63;;;24.10;44.30;;;;;;4976098;28;20473;-62
2023/07/22 09:40:41;;;;;;;2.00;1.90;;;24.10;44.30;;;;;;4980917;28;21094;-62
2023/07/22 09:43:10;;;;;;;2.23;2.13;;;24.10;44.30;;;;;;4984943;28;20954;-62
2023/07/22 09:45:37;;;;;;;1.70;1.60;;;24.10;44.30;;;;;;4982818;28;20832;-62
2023/07/22 09:48:03;;;;;;;2.00;1.90;;;24.10;44.20;;;;;;4995075;28;20457;-61
2023/07/22 09:50:29;;;;;;;1.70;1.60;;;24.10;44.30;;;;;;4990057;28;20482;-61
2023/07/22 09:53:01;;;;;;;1.77;1.67;;;24.10;44.30;;;;;;4974612;28;20478;-63
2023/07/22 09:55:28;;;;;;;1.90;1.80;;;24.10;44.30;;;;;;4980040;28;20236;-62
2023/07/22 09:58:09;;;;;;;2.00;1.90;;;24.10;44.30;;;;;;4986402;28;20449;-61
2023/07/22 10:00:35;;;;;;;1.90;1.80;;;24.10;44.30;;;;;;4985310;28;20464;-63
2023/07/22 10:03:06;;;;;;;2.10;2.00;;;24.10;44.30;;;;;;4992180;28;20939;-61
2023/07/22 10:05:34;;;;;;;1.90;1.80;;;24.10;44.30;;;;;;4992330;28;20567;-61
2023/07/22 10:08:02;;;;;;;2.10;2.00;;;24.10;44.30;;;;;;4994448;28;20466;-61
2023/07/22 10:10:37;;;;;;;1.73;1.63;;;24.10;44.30;;;;;;4992264;28;20544;-63
2023/07/22 10:13:03;;;;;;;1.60;1.50;;;24.10;44.20;;;;;;4996221;28;20545;-62
2023/07/22 10:15:31;;;;;;;1.83;1.73;;;24.10;44.30;;;;;;4987431;28;21537;-62
2023/07/22 10:17:57;;;;;;;1.90;1.80;;;24.10;44.20;;;;;;4981534;28;20458;-63
2023/07/22 10:20:24;;;;;;;2.10;2.00;;;24.10;45.00;;;;;;4994567;28;20991;-63
2023/07/22 10:22:50;;;;;;;1.70;1.60;;;24.10;44.20;;;;;;4992724;28;20228;-62
2023/07/22 10:25:20;;;;;;;1.70;1.60;;;24.10;44.20;;;;;;4993276;28;20481;-62
2023/07/22 10:27:47;;;;;;;1.57;1.47;;;24.10;44.20;;;;;;4997913;28;20454;-63
2023/07/22 10:30:17;;;;;;;2.00;1.90;;;24.10;44.20;;;;;;4988899;28;20964;-62
2023/07/22 10:32:47;;;;;;;1.90;1.80;;;24.10;44.20;;;;;;4995011;28;20479;-62
2023/07/22 10:35:35;;;;;;;1.80;1.70;;;24.10;44.10;;;;;;4990986;28;20981;-62
2023/07/22 10:38:13;;;;;;;1.70;1.60;;;24.10;44.10;;;;;;4989391;28;20463;-61
2023/07/22 10:40:46;;;;;;;2.10;2.00;;;24.10;44.10;;;;;;4989792;28;21334;-62
2023/07/22 10:43:15;;;;;;;2.27;2.17;;;24.10;44.10;;;;;;4993635;28;20453;-64
2023/07/22 10:45:50;;;;;;;1.80;1.70;;;24.10;44.10;;;;;;4987726;28;20541;-63
2023/07/22 10:48:16;;;;;;;1.70;1.60;;;24.10;44.10;;;;;;4980177;28;20457;-63
2023/07/22 10:50:53;;;;;;;1.97;1.87;;;24.10;44.10;;;;;;4976559;28;20957;-63
2023/07/22 10:53:25;;;;;;;1.77;1.67;;;24.10;44.10;;;;;;4973250;28;20228;-63
2023/07/22 10:56:13;;;;;;;1.60;1.50;;;24.10;44.10;;;;;;4985796;28;20541;-62
2023/07/22 10:58:44;;;;;;;1.83;1.73;;;24.10;44.20;;;;;;4989752;28;20473;-62
2023/07/22 11:01:28;;;;;;;1.73;1.63;;;24.10;44.10;;;;;;4997275;28;20459;-62
2023/07/22 11:04:15;;;;;;;1.90;1.80;;;24.10;44.00;;;;;;4998163;28;20519;-61
2023/07/22 11:06:50;;;;;;;1.90;1.80;;;24.10;44.10;;;;;;4990203;28;20485;-61
2023/07/22 11:09:27;;;;;;;1.80;1.70;;;24.10;44.10;;;;;;4991012;28;20479;-61
2023/07/22 11:11:54;;;;;;;1.77;1.67;;;24.10;44.10;;;;;;4993213;28;20467;-62
2023/07/22 11:14:25;;;;;;;1.60;1.50;;;24.20;44.20;;;;;;4995188;28;20473;-63
2023/07/22 11:16:51;;;;;;;1.60;1.50;;;24.10;44.10;;;;;;4991203;28;20460;-61
2023/07/22 11:19:19;;;;;;;1.90;1.80;;;24.10;44.10;;;;;;4995099;28;20458;-62
2023/07/22 11:21:46;;;;;;;1.90;1.80;;;24.10;44.10;;;;;;4987421;28;20533;-62
2023/07/22 11:24:11;;;;;;;2.07;1.97;;;24.20;44.20;;;;;;4991951;28;20477;-62
2023/07/22 11:26:38;;;;;;;1.50;1.40;;;24.10;44.10;;;;;;4994749;28;20867;-62
2023/07/22 11:29:05;;;;;;;2.10;2.00;;;24.10;44.10;;;;;;4992944;28;20219;-61
2023/07/22 11:31:42;;;;;;;1.90;1.80;;;24.10;44.10;;;;;;4984553;28;20434;-62
2023/07/22 11:34:08;;;;;;;1.60;1.50;;;24.10;44.10;;;;;;5008089;28;20496;-62
2023/07/22 11:36:35;;;;;;;1.93;1.83;;;24.10;44.10;;;;;;4985622;28;20879;-62
2023/07/22 11:39:05;;;;;;;1.60;1.50;;;24.10;44.10;;;;;;4989310;28;20457;-62
2023/07/22 11:41:32;;;;;;;1.50;1.40;;;24.10;44.10;;;;;;4995048;28;20999;-62
2023/07/22 11:43:58;;;;;;;2.00;1.90;;;24.10;44.00;;;;;;4997434;28;20459;-63
2023/07/22 11:46:25;;;;;;;1.60;1.50;;;24.10;44.00;;;;;;4994334;28;20465;-61
2023/07/22 11:48:52;;;;;;;1.70;1.60;;;24.10;44.00;;;;;;4996611;28;20449;-61
2023/07/22 11:51:20;;;;;;;1.60;1.50;;;24.10;44.10;;;;;;4988404;28;20500;-61
2023/07/22 11:53:50;;;;;;;1.80;1.70;;;24.10;44.00;;;;;;4991677;28;20442;-61
2023/07/22 11:56:25;;;;;;;1.70;1.60;;;24.10;44.10;;;;;;4994088;28;20484;-61
2023/07/22 11:58:57;;;;;;;1.80;1.70;;;24.20;44.10;;;;;;4985154;28;20555;-62
2023/07/22 12:01:23;;;;;;;1.50;1.40;;;24.10;44.10;;;;;;4982710;28;20999;-62
2023/07/22 12:03:54;;;;;;;1.63;1.53;;;24.10;44.80;;;;;;4999045;28;20996;-62
2023/07/22 12:06:20;;;;;;;1.60;1.50;;;24.10;44.10;;;;;;4998500;28;20492;-62
2023/07/22 12:08:48;;;;;;;1.50;1.40;;;24.10;44.00;;;;;;4995588;28;20472;-62
2023/07/22 12:11:24;;;;;;;1.50;1.40;;;24.10;44.00;;;;;;4990342;28;20231;-62
2023/07/22 12:14:04;;;;;;;1.70;1.60;;;24.10;44.00;;;;;;4980687;28;20450;-62
2023/07/22 12:16:30;;;;;;;1.60;1.50;;;24.20;44.10;;;;;;4976342;28;20452;-62
2023/07/22 12:18:56;;;;;;;1.67;1.57;;;24.10;44.10;;;;;;5013316;28;20450;-61
2023/07/22 12:21:22;;;;;;;1.50;1.40;;;24.10;44.00;;;;;;4976041;28;20259;-62
2023/07/22 12:23:47;;;;;;;1.63;1.53;;;24.10;44.00;;;;;;4991220;28;20477;-63
2023/07/22 12:26:13;;;;;;;1.53;1.43;;;24.10;44.80;;;;;;4981083;28;20224;-62
2023/07/22 12:28:38;;;;;;;1.40;1.30;;;24.10;44.00;;;;;;4974841;28;20231;-62
2023/07/22 12:31:04;;;;;;;1.60;1.50;;;24.10;44.00;;;;;;4989262;28;20254;-61
2023/07/22 12:33:31;;;;;;;1.43;1.33;;;24.10;44.00;;;;;;4993169;28;20230;-62
2023/07/22 12:35:57;;;;;;;1.53;1.43;;;24.10;44.00;;;;;;4983241;28;20232;-62
2023/07/22 12:38:23;;;;;;;1.60;1.50;;;24.10;44.00;;;;;;4976934;28;20978;-64
2023/07/22 12:40:48;;;;;;;1.60;1.50;;;24.10;44.00;;;;;;4978803;28;20232;-61
2023/07/22 12:43:14;;;;;;;1.73;1.63;;;24.10;43.90;;;;;;4976033;28;20450;-62
2023/07/22 12:45:40;;;;;;;1.53;1.43;;;24.10;44.00;;;;;;4976096;28;20233;-62